sensor_id;sensor_type;location;lat;lon;timestamp;P1;durP1;ratioP1;P2;durP2;ratioP2
36241;SDS011;22283;42.748;12.732;2024-03-23T00:56:24;15.57;;;9.00;;
36241;SDS011;22283;42.748;12.732;2024-03-23T01:01:24;13.43;;;9.77;;
36241;SDS011;22283;42.748;12.732;2024-03-23T01:06:25;11.70;;;8.83;;
36241;SDS011;22283;42.748;12.732;2024-03-23T01:11:25;13.00;;;9.57;;
36241;SDS011;22283;42.748;12.732;2024-03-23T01:16:26;14.73;;;8.90;;
36241;SDS011;22283;42.748;12.732;2024-03-23T01:21:27;12.87;;;8.77;;
36241;SDS011;22283;42.748;12.732;2024-03-23T01:26:27;18.47;;;9.67;;
36241;SDS011;22283;42.748;12.732;2024-03-23T01:31:28;9.97;;;7.70;;
36241;SDS011;22283;42.748;12.732;2024-03-23T01:36:28;13.20;;;8.47;;
36241;SDS011;22283;42.748;12.732;2024-03-23T01:41:29;11.70;;;7.77;;
36241;SDS011;22283;42.748;12.732;2024-03-23T01:46:29;11.97;;;8.30;;
36241;SDS011;22283;42.748;12.732;2024-03-23T01:51:30;11.47;;;8.30;;
36241;SDS011;22283;42.748;12.732;2024-03-23T01:56:32;13.05;;;9.18;;
36241;SDS011;22283;42.748;12.732;2024-03-23T02:01:37;10.88;;;8.57;;
36241;SDS011;22283;42.748;12.732;2024-03-23T02:06:37;13.20;;;8.73;;
36241;SDS011;22283;42.748;12.732;2024-03-23T02:11:38;11.70;;;7.73;;
36241;SDS011;22283;42.748;12.732;2024-03-23T02:16:39;13.33;;;8.57;;
36241;SDS011;22283;42.748;12.732;2024-03-23T02:21:39;16.60;;;8.97;;
36241;SDS011;22283;42.748;12.732;2024-03-23T02:26:40;9.17;;;7.63;;
36241;SDS011;22283;42.748;12.732;2024-03-23T02:31:40;10.73;;;8.20;;
36241;SDS011;22283;42.748;12.732;2024-03-23T02:36:41;11.03;;;7.83;;
36241;SDS011;22283;42.748;12.732;2024-03-23T02:41:41;12.07;;;7.50;;
36241;SDS011;22283;42.748;12.732;2024-03-23T02:46:41;8.90;;;7.27;;
36241;SDS011;22283;42.748;12.732;2024-03-23T02:51:42;10.30;;;7.67;;
36241;SDS011;22283;42.748;12.732;2024-03-23T02:56:45;13.02;;;7.75;;
36241;SDS011;22283;42.748;12.732;2024-03-23T03:01:45;11.10;;;7.57;;
36241;SDS011;22283;42.748;12.732;2024-03-23T03:06:46;10.53;;;7.83;;
36241;SDS011;22283;42.748;12.732;2024-03-23T03:11:47;10.63;;;7.53;;
36241;SDS011;22283;42.748;12.732;2024-03-23T03:16:48;11.33;;;7.20;;
36241;SDS011;22283;42.748;12.732;2024-03-23T03:21:48;10.63;;;7.13;;
36241;SDS011;22283;42.748;12.732;2024-03-23T03:26:49;13.30;;;7.30;;
36241;SDS011;22283;42.748;12.732;2024-03-23T03:31:50;13.20;;;8.17;;
36241;SDS011;22283;42.748;12.732;2024-03-23T03:36:51;11.83;;;7.67;;
36241;SDS011;22283;42.748;12.732;2024-03-23T03:41:51;11.97;;;7.27;;
36241;SDS011;22283;42.748;12.732;2024-03-23T03:46:52;12.37;;;8.63;;
36241;SDS011;22283;42.748;12.732;2024-03-23T03:51:53;11.87;;;8.07;;
36241;SDS011;22283;42.748;12.732;2024-03-23T03:56:53;12.37;;;7.77;;
36241;SDS011;22283;42.748;12.732;2024-03-23T04:01:54;11.90;;;6.60;;
36241;SDS011;22283;42.748;12.732;2024-03-23T04:07:00;13.63;;;9.00;;
36241;SDS011;22283;42.748;12.732;2024-03-23T04:12:02;12.60;;;8.18;;
36241;SDS011;22283;42.748;12.732;2024-03-23T04:17:03;11.07;;;7.13;;
36241;SDS011;22283;42.748;12.732;2024-03-23T04:22:03;11.27;;;7.60;;
36241;SDS011;22283;42.748;12.732;2024-03-23T04:27:05;9.00;;;7.40;;
36241;SDS011;22283;42.748;12.732;2024-03-23T04:32:06;11.18;;;7.22;;
36241;SDS011;22283;42.748;12.732;2024-03-23T04:37:07;9.50;;;7.33;;
36241;SDS011;22283;42.748;12.732;2024-03-23T04:42:07;10.77;;;7.23;;
36241;SDS011;22283;42.748;12.732;2024-03-23T04:47:08;11.00;;;7.73;;
36241;SDS011;22283;42.748;12.732;2024-03-23T04:52:12;10.95;;;8.32;;
36241;SDS011;22283;42.748;12.732;2024-03-23T04:57:13;16.87;;;8.93;;
36241;SDS011;22283;42.748;12.732;2024-03-23T05:02:20;12.98;;;8.15;;
36241;SDS011;22283;42.748;12.732;2024-03-23T05:07:22;16.95;;;8.68;;
36241;SDS011;22283;42.748;12.732;2024-03-23T05:12:23;28.93;;;9.67;;
36241;SDS011;22283;42.748;12.732;2024-03-23T05:17:24;26.33;;;8.75;;
36241;SDS011;22283;42.748;12.732;2024-03-23T05:22:25;11.93;;;7.73;;
36241;SDS011;22283;42.748;12.732;2024-03-23T05:27:25;15.57;;;9.07;;
36241;SDS011;22283;42.748;12.732;2024-03-23T05:32:26;21.60;;;10.07;;
36241;SDS011;22283;42.748;12.732;2024-03-23T05:37:26;16.67;;;9.43;;
36241;SDS011;22283;42.748;12.732;2024-03-23T05:42:30;11.00;;;8.27;;
36241;SDS011;22283;42.748;12.732;2024-03-23T05:47:30;15.85;;;9.13;;
36241;SDS011;22283;42.748;12.732;2024-03-23T05:52:31;10.23;;;8.30;;
36241;SDS011;22283;42.748;12.732;2024-03-23T05:57:31;14.33;;;7.97;;
36241;SDS011;22283;42.748;12.732;2024-03-23T06:02:32;17.63;;;8.07;;
36241;SDS011;22283;42.748;12.732;2024-03-23T06:07:33;13.20;;;7.10;;
36241;SDS011;22283;42.748;12.732;2024-03-23T06:12:33;15.70;;;7.20;;
36241;SDS011;22283;42.748;12.732;2024-03-23T06:17:34;14.60;;;6.10;;
36241;SDS011;22283;42.748;12.732;2024-03-23T06:22:34;13.00;;;5.60;;
36241;SDS011;22283;42.748;12.732;2024-03-23T06:27:35;14.93;;;5.93;;
36241;SDS011;22283;42.748;12.732;2024-03-23T06:32:35;16.40;;;6.30;;
36241;SDS011;22283;42.748;12.732;2024-03-23T06:37:36;11.63;;;6.33;;
36241;SDS011;22283;42.748;12.732;2024-03-23T06:42:37;8.27;;;4.50;;
36241;SDS011;22283;42.748;12.732;2024-03-23T06:47:38;9.80;;;5.20;;
36241;SDS011;22283;42.748;12.732;2024-03-23T06:52:38;10.20;;;6.43;;
36241;SDS011;22283;42.748;12.732;2024-03-23T06:57:38;21.80;;;6.23;;
36241;SDS011;22283;42.748;12.732;2024-03-23T07:02:39;13.90;;;5.40;;
36241;SDS011;22283;42.748;12.732;2024-03-23T07:07:40;11.70;;;6.87;;
36241;SDS011;22283;42.748;12.732;2024-03-23T07:12:40;13.67;;;6.93;;
36241;SDS011;22283;42.748;12.732;2024-03-23T07:17:41;9.20;;;6.40;;
36241;SDS011;22283;42.748;12.732;2024-03-23T07:22:41;12.10;;;6.20;;
36241;SDS011;22283;42.748;12.732;2024-03-23T07:27:42;10.77;;;5.13;;
36241;SDS011;22283;42.748;12.732;2024-03-23T07:32:44;8.37;;;4.73;;
36241;SDS011;22283;42.748;12.732;2024-03-23T07:37:45;11.05;;;4.82;;
36241;SDS011;22283;42.748;12.732;2024-03-23T07:42:45;8.57;;;4.43;;
36241;SDS011;22283;42.748;12.732;2024-03-23T07:47:45;9.03;;;4.47;;
36241;SDS011;22283;42.748;12.732;2024-03-23T07:52:46;33.07;;;6.47;;
36241;SDS011;22283;42.748;12.732;2024-03-23T07:57:46;7.73;;;4.63;;
36241;SDS011;22283;42.748;12.732;2024-03-23T08:02:47;11.95;;;4.00;;
36241;SDS011;22283;42.748;12.732;2024-03-23T08:07:51;8.75;;;4.82;;
36241;SDS011;22283;42.748;12.732;2024-03-23T08:12:52;10.57;;;4.77;;
36241;SDS011;22283;42.748;12.732;2024-03-23T08:17:52;8.67;;;4.60;;
36241;SDS011;22283;42.748;12.732;2024-03-23T08:22:52;11.53;;;4.60;;
36241;SDS011;22283;42.748;12.732;2024-03-23T08:27:53;11.67;;;4.27;;
36241;SDS011;22283;42.748;12.732;2024-03-23T08:32:53;12.07;;;4.27;;
36241;SDS011;22283;42.748;12.732;2024-03-23T08:37:54;7.70;;;4.77;;
36241;SDS011;22283;42.748;12.732;2024-03-23T08:42:55;7.43;;;3.92;;
36241;SDS011;22283;42.748;12.732;2024-03-23T08:47:55;7.57;;;4.50;;
36241;SDS011;22283;42.748;12.732;2024-03-23T08:52:56;9.87;;;4.27;;
36241;SDS011;22283;42.748;12.732;2024-03-23T08:57:56;6.67;;;3.20;;
36241;SDS011;22283;42.748;12.732;2024-03-23T09:02:57;9.55;;;3.03;;
36241;SDS011;22283;42.748;12.732;2024-03-23T09:07:57;18.00;;;3.93;;
36241;SDS011;22283;42.748;12.732;2024-03-23T09:12:58;3.80;;;2.60;;
36241;SDS011;22283;42.748;12.732;2024-03-23T09:17:59;6.13;;;2.87;;
36241;SDS011;22283;42.748;12.732;2024-03-23T09:23:00;28.88;;;3.55;;
36241;SDS011;22283;42.748;12.732;2024-03-23T09:28:00;4.37;;;2.43;;
36241;SDS011;22283;42.748;12.732;2024-03-23T09:33:02;9.80;;;3.03;;
36241;SDS011;22283;42.748;12.732;2024-03-23T09:38:03;9.95;;;3.38;;
36241;SDS011;22283;42.748;12.732;2024-03-23T09:43:03;4.38;;;2.72;;
36241;SDS011;22283;42.748;12.732;2024-03-23T09:48:07;7.38;;;3.03;;
36241;SDS011;22283;42.748;12.732;2024-03-23T09:53:10;5.57;;;2.83;;
36241;SDS011;22283;42.748;12.732;2024-03-23T09:58:12;9.10;;;3.30;;
36241;SDS011;22283;42.748;12.732;2024-03-23T10:03:14;6.60;;;3.03;;
36241;SDS011;22283;42.748;12.732;2024-03-23T10:13:25;6.20;;;3.30;;
36241;SDS011;22283;42.748;12.732;2024-03-23T10:18:31;5.70;;;3.03;;
36241;SDS011;22283;42.748;12.732;2024-03-23T10:23:41;5.88;;;2.80;;
36241;SDS011;22283;42.748;12.732;2024-03-23T10:28:55;7.25;;;2.67;;
36241;SDS011;22283;42.748;12.732;2024-03-23T10:34:08;8.43;;;3.50;;
36241;SDS011;22283;42.748;12.732;2024-03-23T10:39:08;4.28;;;2.47;;
36241;SDS011;22283;42.748;12.732;2024-03-23T10:44:10;5.65;;;3.40;;
36241;SDS011;22283;42.748;12.732;2024-03-23T10:49:12;5.57;;;3.10;;
36241;SDS011;22283;42.748;12.732;2024-03-23T10:54:13;5.30;;;3.40;;
36241;SDS011;22283;42.748;12.732;2024-03-23T10:59:13;10.15;;;4.53;;
36241;SDS011;22283;42.748;12.732;2024-03-23T11:04:28;11.40;;;3.38;;
36241;SDS011;22283;42.748;12.732;2024-03-23T11:09:39;13.60;;;3.38;;
36241;SDS011;22283;42.748;12.732;2024-03-23T11:14:40;9.68;;;3.58;;
36241;SDS011;22283;42.748;12.732;2024-03-23T11:19:40;14.45;;;3.47;;
36241;SDS011;22283;42.748;12.732;2024-03-23T11:24:41;7.05;;;3.05;;
36241;SDS011;22283;42.748;12.732;2024-03-23T11:29:43;9.25;;;3.22;;
36241;SDS011;22283;42.748;12.732;2024-03-23T11:39:44;7.30;;;2.70;;
36241;SDS011;22283;42.748;12.732;2024-03-23T11:44:51;6.47;;;2.97;;
36241;SDS011;22283;42.748;12.732;2024-03-23T11:49:51;18.95;;;3.15;;
36241;SDS011;22283;42.748;12.732;2024-03-23T12:00:09;10.98;;;3.47;;
36241;SDS011;22283;42.748;12.732;2024-03-23T12:05:20;12.15;;;3.15;;
36241;SDS011;22283;42.748;12.732;2024-03-23T12:10:22;21.30;;;3.58;;
36241;SDS011;22283;42.748;12.732;2024-03-23T12:15:23;15.35;;;3.85;;
36241;SDS011;22283;42.748;12.732;2024-03-23T12:20:24;6.90;;;3.08;;
36241;SDS011;22283;42.748;12.732;2024-03-23T12:25:24;7.37;;;2.63;;
36241;SDS011;22283;42.748;12.732;2024-03-23T12:30:25;7.72;;;2.78;;
36241;SDS011;22283;42.748;12.732;2024-03-23T12:35:25;6.32;;;3.05;;
36241;SDS011;22283;42.748;12.732;2024-03-23T12:40:26;6.20;;;2.88;;
36241;SDS011;22283;42.748;12.732;2024-03-23T12:45:28;10.07;;;3.25;;
36241;SDS011;22283;42.748;12.732;2024-03-23T12:55:28;7.82;;;4.03;;
36241;SDS011;22283;42.748;12.732;2024-03-23T13:00:29;9.48;;;4.43;;
36241;SDS011;22283;42.748;12.732;2024-03-23T13:10:30;8.23;;;3.37;;
36241;SDS011;22283;42.748;12.732;2024-03-23T13:20:31;10.50;;;2.95;;
36241;SDS011;22283;42.748;12.732;2024-03-23T13:25:31;8.70;;;2.58;;
36241;SDS011;22283;42.748;12.732;2024-03-23T13:30:33;11.88;;;2.65;;
36241;SDS011;22283;42.748;12.732;2024-03-23T13:40:34;6.37;;;2.40;;
36241;SDS011;22283;42.748;12.732;2024-03-23T13:45:34;7.17;;;2.33;;
36241;SDS011;22283;42.748;12.732;2024-03-23T13:50:36;3.50;;;2.30;;
36241;SDS011;22283;42.748;12.732;2024-03-23T13:55:37;7.00;;;3.50;;
36241;SDS011;22283;42.748;12.732;2024-03-23T14:00:37;6.43;;;2.78;;
36241;SDS011;22283;42.748;12.732;2024-03-23T14:05:39;7.43;;;4.10;;
36241;SDS011;22283;42.748;12.732;2024-03-23T14:10:40;12.20;;;4.90;;
36241;SDS011;22283;42.748;12.732;2024-03-23T14:15:42;4.35;;;2.08;;
36241;SDS011;22283;42.748;12.732;2024-03-23T14:20:42;7.20;;;2.00;;
36241;SDS011;22283;42.748;12.732;2024-03-23T14:25:43;24.40;;;3.17;;
36241;SDS011;22283;42.748;12.732;2024-03-23T14:30:43;7.60;;;3.40;;
36241;SDS011;22283;42.748;12.732;2024-03-23T14:35:51;6.30;;;2.83;;
36241;SDS011;22283;42.748;12.732;2024-03-23T14:40:58;11.93;;;3.08;;
36241;SDS011;22283;42.748;12.732;2024-03-23T14:51:07;6.40;;;2.47;;
36241;SDS011;22283;42.748;12.732;2024-03-23T15:01:15;7.13;;;2.78;;
36241;SDS011;22283;42.748;12.732;2024-03-23T15:06:16;10.18;;;2.17;;
36241;SDS011;22283;42.748;12.732;2024-03-23T15:11:16;7.13;;;2.07;;
36241;SDS011;22283;42.748;12.732;2024-03-23T15:16:19;7.25;;;1.73;;
36241;SDS011;22283;42.748;12.732;2024-03-23T15:21:22;6.10;;;1.77;;
36241;SDS011;22283;42.748;12.732;2024-03-23T15:26:22;13.83;;;2.10;;
36241;SDS011;22283;42.748;12.732;2024-03-23T15:31:23;6.77;;;1.97;;
36241;SDS011;22283;42.748;12.732;2024-03-23T15:41:25;17.58;;;2.63;;
36241;SDS011;22283;42.748;12.732;2024-03-23T15:46:25;6.43;;;2.67;;
36241;SDS011;22283;42.748;12.732;2024-03-23T15:51:26;9.03;;;2.47;;
36241;SDS011;22283;42.748;12.732;2024-03-23T15:56:31;7.40;;;1.92;;
36241;SDS011;22283;42.748;12.732;2024-03-23T16:01:34;13.63;;;2.00;;
36241;SDS011;22283;42.748;12.732;2024-03-23T16:06:35;5.80;;;2.30;;
36241;SDS011;22283;42.748;12.732;2024-03-23T16:11:35;5.40;;;2.20;;
36241;SDS011;22283;42.748;12.732;2024-03-23T16:16:36;6.37;;;2.77;;
36241;SDS011;22283;42.748;12.732;2024-03-23T16:21:36;7.00;;;2.33;;
36241;SDS011;22283;42.748;12.732;2024-03-23T16:26:37;6.70;;;3.50;;
36241;SDS011;22283;42.748;12.732;2024-03-23T16:31:37;11.50;;;4.00;;
36241;SDS011;22283;42.748;12.732;2024-03-23T16:36:38;6.33;;;2.67;;
36241;SDS011;22283;42.748;12.732;2024-03-23T16:41:38;6.40;;;4.53;;
36241;SDS011;22283;42.748;12.732;2024-03-23T16:46:39;20.53;;;5.03;;
36241;SDS011;22283;42.748;12.732;2024-03-23T16:51:42;8.70;;;2.90;;
36241;SDS011;22283;42.748;12.732;2024-03-23T16:56:42;20.87;;;4.50;;
36241;SDS011;22283;42.748;12.732;2024-03-23T17:01:42;14.37;;;4.60;;
36241;SDS011;22283;42.748;12.732;2024-03-23T17:06:44;11.75;;;5.25;;
36241;SDS011;22283;42.748;12.732;2024-03-23T17:11:45;14.02;;;4.50;;
36241;SDS011;22283;42.748;12.732;2024-03-23T17:16:46;36.83;;;6.00;;
36241;SDS011;22283;42.748;12.732;2024-03-23T17:21:47;8.23;;;3.60;;
36241;SDS011;22283;42.748;12.732;2024-03-23T17:26:47;13.43;;;3.77;;
36241;SDS011;22283;42.748;12.732;2024-03-23T17:31:48;16.83;;;12.10;;
36241;SDS011;22283;42.748;12.732;2024-03-23T17:36:48;14.57;;;3.23;;
36241;SDS011;22283;42.748;12.732;2024-03-23T17:41:49;10.70;;;4.40;;
36241;SDS011;22283;42.748;12.732;2024-03-23T17:46:49;7.17;;;3.23;;
36241;SDS011;22283;42.748;12.732;2024-03-23T17:51:50;10.93;;;3.00;;
36241;SDS011;22283;42.748;12.732;2024-03-23T17:56:50;10.37;;;4.67;;
36241;SDS011;22283;42.748;12.732;2024-03-23T18:01:51;4.47;;;2.97;;
36241;SDS011;22283;42.748;12.732;2024-03-23T18:06:51;11.07;;;3.73;;
36241;SDS011;22283;42.748;12.732;2024-03-23T18:11:52;11.93;;;4.22;;
36241;SDS011;22283;42.748;12.732;2024-03-23T18:16:53;7.73;;;3.70;;
36241;SDS011;22283;42.748;12.732;2024-03-23T18:21:53;10.27;;;3.57;;
36241;SDS011;22283;42.748;12.732;2024-03-23T18:26:54;13.07;;;4.07;;
36241;SDS011;22283;42.748;12.732;2024-03-23T18:31:55;8.75;;;3.42;;
36241;SDS011;22283;42.748;12.732;2024-03-23T18:36:56;7.07;;;3.27;;
36241;SDS011;22283;42.748;12.732;2024-03-23T18:41:58;7.30;;;4.03;;
36241;SDS011;22283;42.748;12.732;2024-03-23T18:46:59;10.13;;;3.40;;
36241;SDS011;22283;42.748;12.732;2024-03-23T18:51:59;10.87;;;3.57;;
36241;SDS011;22283;42.748;12.732;2024-03-23T18:57:00;11.48;;;3.50;;
36241;SDS011;22283;42.748;12.732;2024-03-23T19:02:01;9.40;;;4.40;;
36241;SDS011;22283;42.748;12.732;2024-03-23T19:07:02;5.85;;;2.97;;
36241;SDS011;22283;42.748;12.732;2024-03-23T19:12:03;9.20;;;3.50;;
36241;SDS011;22283;42.748;12.732;2024-03-23T19:17:04;10.77;;;4.07;;
36241;SDS011;22283;42.748;12.732;2024-03-23T19:22:04;8.40;;;4.27;;
36241;SDS011;22283;42.748;12.732;2024-03-23T19:27:05;6.77;;;3.50;;
36241;SDS011;22283;42.748;12.732;2024-03-23T19:32:06;17.75;;;6.28;;
36241;SDS011;22283;42.748;12.732;2024-03-23T19:37:06;9.10;;;3.50;;
36241;SDS011;22283;42.748;12.732;2024-03-23T19:42:07;14.10;;;4.33;;
36241;SDS011;22283;42.748;12.732;2024-03-23T19:47:08;8.07;;;4.38;;
36241;SDS011;22283;42.748;12.732;2024-03-23T19:52:09;9.33;;;3.70;;
36241;SDS011;22283;42.748;12.732;2024-03-23T19:57:09;8.90;;;3.63;;
36241;SDS011;22283;42.748;12.732;2024-03-23T20:02:10;8.73;;;3.93;;
36241;SDS011;22283;42.748;12.732;2024-03-23T20:07:10;8.33;;;4.27;;
36241;SDS011;22283;42.748;12.732;2024-03-23T20:12:12;6.13;;;4.15;;
36241;SDS011;22283;42.748;12.732;2024-03-23T20:17:12;10.60;;;4.40;;
36241;SDS011;22283;42.748;12.732;2024-03-23T20:22:13;16.00;;;5.03;;
36241;SDS011;22283;42.748;12.732;2024-03-23T20:27:13;9.47;;;4.13;;
36241;SDS011;22283;42.748;12.732;2024-03-23T20:32:14;12.57;;;4.22;;
36241;SDS011;22283;42.748;12.732;2024-03-23T20:37:17;12.35;;;4.15;;
36241;SDS011;22283;42.748;12.732;2024-03-23T20:42:17;9.93;;;5.83;;
36241;SDS011;22283;42.748;12.732;2024-03-23T20:47:18;14.50;;;5.23;;
36241;SDS011;22283;42.748;12.732;2024-03-23T20:52:18;8.13;;;4.97;;
36241;SDS011;22283;42.748;12.732;2024-03-23T20:57:19;11.07;;;3.90;;
36241;SDS011;22283;42.748;12.732;2024-03-23T21:02:20;10.80;;;3.63;;
36241;SDS011;22283;42.748;12.732;2024-03-23T21:07:20;8.93;;;3.80;;
36241;SDS011;22283;42.748;12.732;2024-03-23T21:12:21;9.10;;;3.30;;
36241;SDS011;22283;42.748;12.732;2024-03-23T21:22:23;13.63;;;4.15;;
36241;SDS011;22283;42.748;12.732;2024-03-23T21:27:23;12.43;;;4.00;;
36241;SDS011;22283;42.748;12.732;2024-03-23T21:32:24;6.57;;;3.80;;
36241;SDS011;22283;42.748;12.732;2024-03-23T21:37:26;8.88;;;4.97;;
36241;SDS011;22283;42.748;12.732;2024-03-23T21:42:27;9.83;;;4.20;;
36241;SDS011;22283;42.748;12.732;2024-03-23T21:47:27;8.43;;;3.40;;
36241;SDS011;22283;42.748;12.732;2024-03-23T21:52:28;8.20;;;4.43;;
36241;SDS011;22283;42.748;12.732;2024-03-23T21:57:28;10.03;;;3.60;;
36241;SDS011;22283;42.748;12.732;2024-03-23T22:02:29;5.93;;;3.50;;
36241;SDS011;22283;42.748;12.732;2024-03-23T22:07:30;7.83;;;3.93;;
36241;SDS011;22283;42.748;12.732;2024-03-23T22:12:32;8.75;;;4.60;;
36241;SDS011;22283;42.748;12.732;2024-03-23T22:17:33;14.77;;;4.00;;
36241;SDS011;22283;42.748;12.732;2024-03-23T22:22:33;10.10;;;3.43;;
36241;SDS011;22283;42.748;12.732;2024-03-23T22:27:33;7.63;;;3.70;;
36241;SDS011;22283;42.748;12.732;2024-03-23T22:32:34;10.00;;;4.20;;
36241;SDS011;22283;42.748;12.732;2024-03-23T22:37:36;8.30;;;3.40;;
36241;SDS011;22283;42.748;12.732;2024-03-23T22:42:37;8.13;;;4.13;;
36241;SDS011;22283;42.748;12.732;2024-03-23T22:47:38;8.65;;;3.60;;
36241;SDS011;22283;42.748;12.732;2024-03-23T22:52:39;11.87;;;3.83;;
36241;SDS011;22283;42.748;12.732;2024-03-23T22:57:39;8.07;;;3.60;;
36241;SDS011;22283;42.748;12.732;2024-03-23T23:02:40;7.43;;;3.00;;
36241;SDS011;22283;42.748;12.732;2024-03-23T23:07:41;9.97;;;3.60;;
36241;SDS011;22283;42.748;12.732;2024-03-23T23:12:41;9.00;;;3.03;;
36241;SDS011;22283;42.748;12.732;2024-03-23T23:17:42;9.05;;;3.83;;
36241;SDS011;22283;42.748;12.732;2024-03-23T23:22:43;6.77;;;3.43;;
36241;SDS011;22283;42.748;12.732;2024-03-23T23:27:43;10.73;;;4.13;;
36241;SDS011;22283;42.748;12.732;2024-03-23T23:32:44;11.10;;;5.10;;
36241;SDS011;22283;42.748;12.732;2024-03-23T23:37:44;6.30;;;4.00;;
36241;SDS011;22283;42.748;12.732;2024-03-23T23:42:45;7.37;;;3.73;;
36241;SDS011;22283;42.748;12.732;2024-03-23T23:47:45;10.93;;;5.17;;
36241;SDS011;22283;42.748;12.732;2024-03-23T23:52:46;9.77;;;4.00;;
36241;SDS011;22283;42.748;12.732;2024-03-23T23:57:46;9.90;;;4.13;;
